Time;durP1;ratioP1;P1;durP2;ratioP2;P2;SDS_P1;SDS_P2;PMS_P1;PMS_P2;Temp;Humidity;BMP_temperature;BMP_pressure;BME280_temperature;BME280_humidity;BME280_pressure;Samples;Min_cycle;Max_cycle;Signal;HPM_P1;HPM_P2
2022/12/27 00:01:22;;;;;;;0.00;0.00;;;;;;;4.30;74.27;101298.47;7364311;19;20038;-59
2022/12/27 00:03:47;;;;;;;0.00;0.00;;;;;;;4.23;74.62;101292.34;7363758;19;20007;-59
2022/12/27 00:06:18;;;;;;;0.10;0.10;;;;;;;4.32;74.40;101297.63;7365870;19;20010;-59
2022/12/27 00:08:44;;;;;;;0.00;0.00;;;;;;;4.32;74.59;101295.06;7365265;19;21756;-59
2022/12/27 00:11:13;;;;;;;0.10;0.10;;;;;;;4.33;74.63;101290.75;7362555;19;20078;-60
2022/12/27 00:13:39;;;;;;;0.00;0.00;;;;;;;4.33;74.82;101293.34;7360843;19;20018;-59
2022/12/27 00:16:07;;;;;;;0.00;0.00;;;;;;;4.34;74.49;101290.75;7359688;19;22095;-60
2022/12/27 00:18:32;;;;;;;;;;;;;;;4.36;74.44;101296.84;7359884;19;20010;-59
2022/12/27 00:20:59;;;;;;;0.10;0.10;;;;;;;4.35;74.25;101297.66;7355643;19;19927;-59
2022/12/27 00:23:25;;;;;;;0.08;0.08;;;;;;;4.34;74.47;101295.94;7360593;19;20010;-60
2022/12/27 00:25:51;;;;;;;0.10;0.10;;;;;;;4.33;74.27;101293.34;7356686;19;20034;-60
2022/12/27 00:28:16;;;;;;;0.08;0.08;;;;;;;4.32;74.46;101289.03;7357609;19;20003;-59
2022/12/27 00:30:42;;;;;;;0.00;0.00;;;;;;;4.32;74.77;101291.59;7364444;19;21865;-60
2022/12/27 00:33:08;;;;;;;0.10;0.10;;;;;;;4.32;74.76;101286.44;7361665;19;20419;-59
2022/12/27 00:35:33;;;;;;;0.10;0.10;;;;;;;4.31;74.33;101288.16;7364648;19;20030;-59
2022/12/27 00:37:58;;;;;;;0.10;0.10;;;;;;;4.30;74.28;101296.72;7362689;19;20006;-60
2022/12/27 00:40:24;;;;;;;0.03;0.03;;;;;;;4.20;74.71;101269.03;7365389;19;20010;-59
2022/12/27 00:42:49;;;;;;;0.00;0.00;;;;;;;4.29;74.57;101282.06;7363001;19;20022;-60
2022/12/27 00:45:15;;;;;;;0.08;0.08;;;;;;;4.29;74.71;101287.25;7362674;19;20039;-60
2022/12/27 00:47:40;;;;;;;0.00;0.00;;;;;;;4.29;74.34;101284.66;7362499;19;20489;-59
2022/12/27 00:50:06;;;;;;;0.00;0.00;;;;;;;4.29;74.62;101287.25;7357929;19;20006;-60
2022/12/27 00:52:31;;;;;;;0.03;0.03;;;;;;;4.27;74.62;101280.34;7364395;19;20778;-60
2022/12/27 00:54:56;;;;;;;0.10;0.10;;;;;;;4.26;74.67;101269.13;7362080;19;20014;-60
2022/12/27 00:57:22;;;;;;;0.00;0.00;;;;;;;4.25;74.71;101259.63;7361383;19;20007;-59
2022/12/27 00:59:47;;;;;;;0.00;0.00;;;;;;;4.20;74.90;101247.50;7361423;19;20010;-60
2022/12/27 01:02:13;;;;;;;0.10;0.10;;;;;;;4.29;74.98;101261.41;7361083;19;20023;-59
2022/12/27 01:04:38;;;;;;;0.10;0.10;;;;;;;4.30;75.03;101264.84;7359300;19;20014;-60
2022/12/27 01:07:03;;;;;;;0.10;0.10;;;;;;;4.30;74.99;101263.13;7361110;19;20066;-60
2022/12/27 01:09:29;;;;;;;0.10;0.10;;;;;;;4.31;74.74;101251.97;7361522;19;20006;-60
2022/12/27 01:11:54;;;;;;;0.08;0.08;;;;;;;4.32;74.96;101245.94;7360261;19;20011;-60
2022/12/27 01:14:20;;;;;;;0.10;0.10;;;;;;;4.35;75.13;101245.09;7359894;19;20010;-59
2022/12/27 01:16:46;;;;;;;0.10;0.10;;;;;;;4.25;75.11;101232.91;7359557;19;20030;-60
2022/12/27 01:19:11;;;;;;;0.00;0.00;;;;;;;4.39;75.07;101247.72;7357985;19;20038;-59
2022/12/27 01:21:36;;;;;;;0.00;0.00;;;;;;;4.41;75.09;101251.22;7357484;19;22639;-59
2022/12/27 01:24:04;;;;;;;0.10;0.10;;;;;;;4.46;75.08;101243.50;7355629;19;20002;-60
2022/12/27 01:26:30;;;;;;;0.03;0.03;;;;;;;4.47;75.17;101234.03;7356026;19;20014;-59
2022/12/27 01:28:55;;;;;;;0.00;0.00;;;;;;;4.51;75.02;101238.38;7353207;19;20372;-60
2022/12/27 01:31:26;;;;;;;0.08;0.08;;;;;;;4.54;74.90;101233.22;7346525;19;20078;-59
2022/12/27 01:33:57;;;;;;;0.10;0.10;;;;;;;4.58;74.94;101232.41;7357764;19;20035;-59
2022/12/27 01:36:24;;;;;;;0.00;0.00;;;;;;;4.53;74.95;101218.56;7360704;19;20018;-59
2022/12/27 01:38:50;;;;;;;0.00;0.00;;;;;;;4.63;75.20;101230.75;7363594;19;20728;-59
2022/12/27 01:44:42;;;;;;;0.00;0.00;;;;;;;4.72;74.84;101241.19;7362998;19;20040;-60
2022/12/27 01:47:35;;;;;;;0.00;0.00;;;;;;;4.74;75.13;101233.44;7261438;19;2004397;-59
2022/12/27 01:50:19;;;;;;;0.00;0.00;;;;;;;4.73;75.25;101226.53;7257086;19;2004275;-60
2022/12/27 01:52:47;;;;;;;0.00;0.00;;;;;;;4.75;74.93;101228.25;7361398;19;20026;-59
2022/12/27 01:55:22;;;;;;;0.10;0.10;;;;;;;4.77;75.20;101223.13;7362174;19;20025;-59
2022/12/27 01:57:51;;;;;;;0.00;0.00;;;;;;;4.61;75.19;101196.22;7361553;19;20019;-59
2022/12/27 02:00:17;;;;;;;0.00;0.00;;;;;;;4.79;74.85;101219.69;7362343;19;20772;-59
2022/12/27 02:02:43;;;;;;;0.00;0.00;;;;;;;4.80;75.24;101203.31;7360506;19;20143;-60
2022/12/27 02:05:11;;;;;;;0.00;0.00;;;;;;;4.83;75.28;101203.34;7362939;19;20012;-59
2022/12/27 02:08:20;;;;;;;0.00;0.00;;;;;;;4.88;74.94;101201.66;7362109;19;20010;-60
2022/12/27 02:10:45;;;;;;;0.10;0.10;;;;;;;4.86;74.72;101202.47;7258249;19;2004300;-60
2022/12/27 02:13:12;;;;;;;0.03;0.03;;;;;;;4.91;75.10;101193.91;7359595;19;20014;-60
2022/12/27 02:15:38;;;;;;;0.00;0.00;;;;;;;4.94;74.70;101180.13;7363228;19;20010;-60
2022/12/27 02:18:03;;;;;;;0.00;0.00;;;;;;;4.97;74.97;101176.69;7363337;19;20049;-60
2022/12/27 02:20:56;;;;;;;0.00;0.00;;;;;;;4.95;75.24;101164.63;7360408;19;20022;-58
2022/12/27 02:24:02;;;;;;;0.00;0.00;;;;;;;5.05;74.72;101162.09;7256590;19;2004552;-60
2022/12/27 02:27:05;;;;;;;0.00;0.00;;;;;;;5.08;74.89;101167.31;7259917;19;2004415;-60
2022/12/27 02:29:52;;;;;;;0.00;0.00;;;;;;;5.08;74.96;101164.72;7260549;19;2004377;-59
2022/12/27 02:32:30;;;;;;;0.00;0.00;;;;;;;5.10;74.67;101165.59;7360463;19;20043;-58
2022/12/27 02:35:17;;;;;;;0.00;0.00;;;;;;;5.14;74.86;101160.44;7361332;19;20010;-59
2022/12/27 02:38:09;;;;;;;0.00;0.00;;;;;;;5.16;74.84;101163.91;7362560;19;20011;-59
2022/12/27 02:53:02;;;;;;;0.00;0.00;;;;;;;5.26;74.71;101158.78;7259030;19;2004533;-59
2022/12/27 02:57:07;;;;;;;0.08;0.08;;;;;;;5.25;74.56;101155.34;7259752;19;2004515;-60
2022/12/27 02:59:14;;;;;;;0.08;0.08;;;;;;;5.28;74.69;101144.16;7249958;19;2004549;-58
2022/12/27 03:05:18;;;;;;;0.00;0.00;;;;;;;5.30;75.01;101125.16;7156289;19;2005561;-60
2022/12/27 03:08:06;;;;;;;0.00;0.00;;;;;;;5.36;75.36;101125.19;7357694;19;20060;-59
2022/12/27 03:15:53;;;;;;;0.00;0.00;;;;;;;5.42;75.00;101117.47;7152219;19;2005304;-59
2022/12/27 03:17:08;;;;;;;0.00;0.00;;;;;;;5.47;75.16;101115.78;7255862;19;2004449;-59
2022/12/27 03:25:27;;;;;;;0.00;0.00;;;;;;;5.60;75.11;101095.09;7359767;19;20934;-60
2022/12/27 03:33:41;;;;;;;0.00;0.00;;;;;;;5.73;75.12;101076.16;7260008;19;2004586;-59
2022/12/27 03:39:26;;;;;;;0.00;0.00;;;;;;;5.84;74.94;101066.66;7262218;19;2004512;-59
2022/12/27 03:44:46;;;;;;;0.05;0.05;;;;;;;5.86;75.26;101054.56;7261852;19;2004738;-59
2022/12/27 03:47:14;;;;;;;0.10;0.10;;;;;;;5.95;74.90;101052.03;7355482;19;20014;-60
2022/12/27 03:50:06;;;;;;;0.00;0.00;;;;;;;5.97;75.11;101049.44;7364853;19;20018;-59
2022/12/27 03:52:42;;;;;;;0.00;0.00;;;;;;;6.03;74.75;101048.56;7260938;19;2004595;-59
2022/12/27 03:55:09;;;;;;;0.00;0.00;;;;;;;6.05;74.76;101041.69;7365083;19;20013;-60
2022/12/27 03:57:35;;;;;;;0.00;0.00;;;;;;;6.07;74.65;101034.75;7364972;19;20018;-59
2022/12/27 04:00:00;;;;;;;0.00;0.00;;;;;;;6.09;74.88;101033.91;7365958;19;20010;-59
2022/12/27 04:02:26;;;;;;;0.00;0.00;;;;;;;6.11;74.42;101031.31;7365327;19;20794;-59
2022/12/27 04:04:51;;;;;;;0.00;0.00;;;;;;;6.14;74.30;101026.16;7348343;19;20015;-60
2022/12/27 04:07:17;;;;;;;0.00;0.00;;;;;;;6.16;74.78;101016.63;7364288;19;20810;-59
2022/12/27 04:37:04;;;;;;;0.00;0.00;;;;;;;6.34;74.69;100950.94;7364424;19;20094;-59
2022/12/27 04:39:30;;;;;;;0.00;0.00;;;;;;;6.33;74.64;100939.66;7359114;19;20557;-59
2022/12/27 04:55:59;;;;;;;0.00;0.00;;;;;;;6.44;74.75;100898.19;7361594;19;20016;-59
2022/12/27 04:58:25;;;;;;;0.00;0.00;;;;;;;6.44;74.97;100895.59;7363337;19;20006;-59
2022/12/27 05:03:37;;;;;;;0.10;0.10;;;;;;;6.44;75.37;100878.28;7361160;19;20015;-58
2022/12/27 05:06:02;;;;;;;0.00;0.00;;;;;;;6.44;75.15;100875.69;7361368;19;20018;-58
2022/12/27 05:14:00;;;;;;;0.00;0.00;;;;;;;6.43;75.18;100855.78;7359455;19;20013;-59
2022/12/27 05:16:33;;;;;;;0.00;0.00;;;;;;;6.14;75.45;100797.97;7360485;19;20021;-59
2022/12/27 05:18:59;;;;;;;0.00;0.00;;;;;;;6.44;75.14;100843.69;7361102;19;20402;-59
2022/12/27 05:21:25;;;;;;;0.00;0.00;;;;;;;6.45;75.50;100840.22;7362601;19;20022;-59
2022/12/27 05:26:36;;;;;;;0.00;0.00;;;;;;;6.40;75.53;100816.91;7359451;19;20108;-58
2022/12/27 05:29:01;;;;;;;0.00;0.00;;;;;;;6.44;75.73;100820.34;7360987;19;20019;-59
2022/12/27 05:31:28;;;;;;;0.10;0.10;;;;;;;6.45;75.66;100809.97;7362873;19;20653;-59
2022/12/27 05:33:53;;;;;;;0.00;0.00;;;;;;;6.43;76.16;100796.13;7358372;19;20014;-58
2022/12/27 05:36:19;;;;;;;0.00;0.00;;;;;;;6.47;76.00;100792.66;7362280;19;20025;-59
2022/12/27 05:38:45;;;;;;;0.10;0.10;;;;;;;6.47;75.73;100777.09;7360477;19;20024;-58
2022/12/27 05:41:11;;;;;;;0.00;0.00;;;;;;;6.48;76.06;100771.03;7360576;19;20002;-59
2022/12/27 05:43:37;;;;;;;0.10;0.10;;;;;;;6.49;75.81;100759.81;7360434;19;20010;-59
2022/12/27 05:46:05;;;;;;;0.00;0.00;;;;;;;6.52;75.84;100758.03;7362953;19;20014;-59
2022/12/27 05:48:30;;;;;;;0.00;0.00;;;;;;;6.53;75.76;100749.38;7359808;19;20014;-59
2022/12/27 05:50:56;;;;;;;0.10;0.10;;;;;;;6.52;75.64;100748.53;7361964;19;20516;-59
2022/12/27 05:53:21;;;;;;;0.00;0.00;;;;;;;6.55;75.93;100745.06;7361317;19;20513;-60
2022/12/27 05:55:54;;;;;;;0.10;0.10;;;;;;;6.57;76.06;100740.72;7360681;19;20857;-59
2022/12/27 05:58:20;;;;;;;0.03;0.03;;;;;;;6.56;75.81;100733.81;7357472;19;20836;-59
2022/12/27 06:00:45;;;;;;;0.00;0.00;;;;;;;6.57;76.14;100719.97;7356037;19;20039;-59
2022/12/27 06:03:11;;;;;;;0.10;0.10;;;;;;;6.57;76.18;100700.06;7361496;19;20070;-58
2022/12/27 06:05:36;;;;;;;0.10;0.10;;;;;;;6.58;76.01;100695.75;7357237;19;20009;-57
2022/12/27 06:08:01;;;;;;;0.10;0.10;;;;;;;6.60;76.40;100691.41;7359311;19;20007;-59
2022/12/27 06:10:27;;;;;;;0.00;0.00;;;;;;;6.60;76.17;100683.63;7361086;19;20010;-59
2022/12/27 06:12:52;;;;;;;0.08;0.08;;;;;;;6.58;75.65;100669.78;7360273;19;20014;-59
2022/12/27 06:15:18;;;;;;;0.00;0.00;;;;;;;6.64;76.29;100674.94;7359090;19;20014;-60
2022/12/27 06:17:43;;;;;;;0.00;0.00;;;;;;;6.64;76.21;100665.44;7361461;19;20121;-59
2022/12/27 06:20:09;;;;;;;0.10;0.10;;;;;;;6.67;76.06;100664.53;7357683;19;20014;-58
2022/12/27 06:22:35;;;;;;;0.03;0.03;;;;;;;6.67;76.02;100656.75;7361212;19;20378;-58
2022/12/27 06:25:00;;;;;;;0.00;0.00;;;;;;;6.70;76.46;100659.34;7358436;19;20018;-59
2022/12/27 06:27:25;;;;;;;0.00;0.00;;;;;;;6.70;76.24;100633.41;7360920;19;20035;-60
2022/12/27 06:29:51;;;;;;;0.10;0.10;;;;;;;6.72;76.08;100632.50;7361094;19;20830;-60
2022/12/27 06:32:17;;;;;;;0.08;0.08;;;;;;;6.73;76.16;100622.97;7361297;19;20104;-59
2022/12/27 06:34:43;;;;;;;0.00;0.00;;;;;;;6.75;76.71;100623.84;7358216;19;20010;-60
2022/12/27 06:37:08;;;;;;;0.10;0.10;;;;;;;6.78;76.59;100620.34;7358644;19;20025;-59
2022/12/27 06:39:34;;;;;;;0.00;0.00;;;;;;;6.80;76.38;100608.22;7359328;19;20011;-60
2022/12/27 06:41:59;;;;;;;0.00;0.00;;;;;;;6.83;76.66;100605.59;7361133;19;20022;-59
2022/12/27 06:44:25;;;;;;;0.00;0.00;;;;;;;6.84;76.42;100595.19;7358875;19;20014;-59
2022/12/27 06:46:50;;;;;;;0.00;0.00;;;;;;;6.86;76.37;100588.25;7357054;19;20022;-59
2022/12/27 06:49:15;;;;;;;0.00;0.00;;;;;;;6.88;76.67;100581.31;7356125;19;20031;-60
2022/12/27 06:51:41;;;;;;;0.00;0.00;;;;;;;6.92;76.72;100570.03;7360386;19;20024;-59
2022/12/27 06:54:06;;;;;;;0.00;0.00;;;;;;;6.94;76.78;100563.06;7357469;19;20011;-60
2022/12/27 06:56:32;;;;;;;0.00;0.00;;;;;;;6.97;76.88;100555.28;7358753;19;20046;-59
2022/12/27 06:58:57;;;;;;;0.00;0.00;;;;;;;7.02;76.63;100547.44;7351588;19;20022;-60
2022/12/27 07:01:25;;;;;;;0.00;0.00;;;;;;;6.92;76.63;100515.50;7359442;19;20113;-59
2022/12/27 07:03:52;;;;;;;0.03;0.03;;;;;;;7.12;76.78;100543.00;7360470;19;20007;-60
2022/12/27 07:06:19;;;;;;;0.05;0.05;;;;;;;7.15;76.64;100537.78;7358504;19;20010;-59
2022/12/27 07:08:45;;;;;;;0.00;0.00;;;;;;;7.20;76.32;100536.84;7360398;19;20011;-60
2022/12/27 07:11:13;;;;;;;0.00;0.00;;;;;;;7.24;76.90;100543.72;7364030;19;20596;-59
2022/12/27 07:13:47;;;;;;;0.03;0.03;;;;;;;7.30;76.69;100535.00;7366772;19;20007;-59
2022/12/27 07:16:15;;;;;;;0.00;0.00;;;;;;;7.34;76.64;100528.88;7365454;19;20011;-60
2022/12/27 07:18:41;;;;;;;0.00;0.00;;;;;;;7.40;76.35;100528.81;7367964;19;20403;-59
2022/12/27 07:21:12;;;;;;;0.08;0.08;;;;;;;7.46;76.91;100510.56;7366457;19;20434;-60
2022/12/27 07:23:37;;;;;;;0.00;0.00;;;;;;;7.49;77.00;100507.91;7368215;19;20026;-60
2022/12/27 07:26:10;;;;;;;0.00;0.00;;;;;;;7.53;77.04;100494.00;7367570;19;20006;-60
2022/12/27 07:28:36;;;;;;;0.10;0.10;;;;;;;7.64;76.94;100485.19;7363099;19;20043;-60
2022/12/27 07:31:10;;;;;;;0.10;0.10;;;;;;;7.75;77.38;100491.09;7366009;19;20538;-60
2022/12/27 07:33:37;;;;;;;0.00;0.00;;;;;;;7.81;77.28;100478.03;7365893;19;20358;-61
2022/12/27 07:36:06;;;;;;;0.00;0.00;;;;;;;7.92;77.50;100457.91;7367085;19;20030;-60
2022/12/27 07:38:31;;;;;;;0.00;0.00;;;;;;;7.96;77.55;100446.59;7365956;19;20021;-60
2022/12/27 07:41:00;;;;;;;0.10;0.10;;;;;;;8.12;77.35;100441.13;7367347;19;21683;-60
2022/12/27 07:43:33;;;;;;;0.00;0.00;;;;;;;8.18;77.22;100447.09;7364772;19;20107;-59
2022/12/27 07:46:13;;;;;;;0.10;0.10;;;;;;;8.29;76.84;100439.09;7365317;19;20010;-60
2022/12/27 07:48:40;;;;;;;0.00;0.00;;;;;;;8.31;77.07;100432.09;7359545;19;20033;-60
2022/12/27 07:51:05;;;;;;;0.00;0.00;;;;;;;8.36;76.81;100435.50;7367737;19;20043;-59
2022/12/27 07:53:31;;;;;;;0.00;0.00;;;;;;;8.42;76.79;100430.22;7362560;19;20010;-60
2022/12/27 07:55:56;;;;;;;0.00;0.00;;;;;;;8.47;76.80;100417.13;7364977;19;20014;-59
2022/12/27 07:58:22;;;;;;;0.05;0.05;;;;;;;8.52;77.07;100408.34;7361855;19;20110;-60
2022/12/27 08:00:50;;;;;;;0.00;0.00;;;;;;;8.53;77.19;100389.25;7364794;19;20040;-59
2022/12/27 08:03:15;;;;;;;0.10;0.10;;;;;;;8.65;77.08;100389.88;7364800;19;20014;-60
2022/12/27 08:05:48;;;;;;;0.00;0.00;;;;;;;8.71;76.96;100381.94;7360883;19;20019;-58
2022/12/27 08:08:16;;;;;;;0.00;0.00;;;;;;;8.66;76.67;100375.97;7365504;19;20110;-59
2022/12/27 08:10:42;;;;;;;0.00;0.00;;;;;;;8.78;76.89;100378.34;7365533;19;20010;-60
2022/12/27 08:13:08;;;;;;;0.00;0.00;;;;;;;8.80;76.96;100368.75;7360719;19;20066;-60
2022/12/27 08:15:34;;;;;;;0.00;0.00;;;;;;;8.83;76.93;100373.91;7365390;19;20011;-60
2022/12/27 08:17:59;;;;;;;0.00;0.00;;;;;;;8.88;77.02;100382.47;7363872;19;20010;-60
2022/12/27 08:20:25;;;;;;;0.00;0.00;;;;;;;8.93;76.86;100372.81;7362531;19;20006;-60
2022/12/27 08:22:50;;;;;;;0.00;0.00;;;;;;;8.97;76.71;100368.38;7364112;19;20010;-60
2022/12/27 08:25:15;;;;;;;0.10;0.10;;;;;;;9.04;76.86;100376.03;7362929;19;20014;-60
2022/12/27 08:27:41;;;;;;;0.00;0.00;;;;;;;9.09;77.13;100355.97;7364454;19;20007;-60
2022/12/27 08:30:07;;;;;;;0.00;0.00;;;;;;;9.13;76.84;100361.13;7364471;19;20052;-60
2022/12/27 08:32:33;;;;;;;0.00;0.00;;;;;;;9.15;76.93;100357.56;7364462;19;20014;-60
2022/12/27 08:34:58;;;;;;;0.10;0.10;;;;;;;9.18;76.86;100348.84;7359976;19;21008;-60
2022/12/27 08:37:23;;;;;;;0.00;0.00;;;;;;;9.22;76.98;100345.25;7364746;19;20044;-60
2022/12/27 08:39:49;;;;;;;0.10;0.10;;;;;;;9.34;76.86;100350.19;7361088;19;20014;-60
2022/12/27 08:42:14;;;;;;;0.10;0.10;;;;;;;9.35;76.90;100339.72;7366183;19;20071;-60
2022/12/27 08:44:40;;;;;;;0.10;0.10;;;;;;;9.37;76.76;100334.47;7359395;19;20038;-60
2022/12/27 08:47:05;;;;;;;0.00;0.00;;;;;;;9.43;76.62;100323.94;7365357;19;20018;-60
2022/12/27 08:49:30;;;;;;;0.10;0.10;;;;;;;9.33;76.76;100301.59;7363582;19;20072;-59
2022/12/27 08:51:56;;;;;;;0.10;0.10;;;;;;;9.45;76.66;100322.13;7364024;19;20014;-60
2022/12/27 08:54:22;;;;;;;0.00;0.00;;;;;;;9.46;76.91;100313.41;7362309;19;20021;-59
2022/12/27 08:56:48;;;;;;;0.00;0.00;;;;;;;9.39;77.10;100285.81;7364327;19;20002;-60
2022/12/27 08:59:13;;;;;;;0.10;0.10;;;;;;;9.50;76.42;100299.41;7364280;19;20082;-60
2022/12/27 09:01:39;;;;;;;0.00;0.00;;;;;;;9.53;76.69;100299.34;7361477;19;20035;-60
2022/12/27 09:04:04;;;;;;;0.08;0.08;;;;;;;9.56;76.67;100293.19;7360381;19;20020;-60
2022/12/27 09:06:29;;;;;;;0.10;0.10;;;;;;;9.59;76.73;100309.63;7356967;19;20042;-60
2022/12/27 09:08:55;;;;;;;0.10;0.10;;;;;;;9.61;76.85;100281.75;7354209;19;20006;-60
2022/12/27 09:11:27;;;;;;;0.10;0.10;;;;;;;9.67;76.79;100285.09;7364479;19;20012;-60
2022/12/27 09:13:53;;;;;;;0.10;0.10;;;;;;;9.68;77.25;100281.59;7358559;19;20017;-60
2022/12/27 09:16:23;;;;;;;0.05;0.05;;;;;;;9.74;77.08;100271.03;7364054;19;20014;-60
2022/12/27 09:18:51;;;;;;;0.10;0.10;;;;;;;9.79;77.23;100261.34;7360418;19;20038;-60
2022/12/27 09:21:18;;;;;;;0.00;0.00;;;;;;;9.77;77.45;100250.06;7362239;19;20038;-59
2022/12/27 09:23:45;;;;;;;0.00;0.00;;;;;;;9.92;77.47;100278.34;7363377;19;20002;-60
2022/12/27 09:26:16;;;;;;;0.10;0.10;;;;;;;9.97;77.06;100263.44;7364512;19;20010;-60
2022/12/27 09:28:42;;;;;;;0.10;0.10;;;;;;;9.99;76.92;100259.03;7363599;19;20453;-61
2022/12/27 09:31:10;;;;;;;0.00;0.00;;;;;;;10.03;76.93;100247.59;7358430;19;20023;-60
2022/12/27 09:33:35;;;;;;;0.10;0.10;;;;;;;10.07;76.81;100249.22;7358177;19;20021;-60
2022/12/27 09:36:02;;;;;;;0.10;0.10;;;;;;;10.14;76.89;100242.97;7350893;19;20018;-60
2022/12/27 09:38:28;;;;;;;0.10;0.10;;;;;;;10.17;76.93;100228.97;7358496;19;20031;-60
2022/12/27 09:40:56;;;;;;;0.10;0.10;;;;;;;10.26;77.08;100217.44;7355488;19;20086;-61
2022/12/27 09:43:38;;;;;;;0.10;0.10;;;;;;;10.34;77.30;100205.88;7359297;19;20638;-60
2022/12/27 09:46:09;;;;;;;0.10;0.10;;;;;;;10.29;77.17;100183.41;7361803;19;20054;-60
2022/12/27 09:48:37;;;;;;;0.00;0.00;;;;;;;10.34;77.14;100186.75;7359267;19;20017;-61
2022/12/27 09:51:16;;;;;;;0.10;0.10;;;;;;;10.49;77.03;100199.34;7363164;19;20018;-60
2022/12/27 09:53:57;;;;;;;0.10;0.10;;;;;;;10.54;77.16;100180.91;7363030;19;20038;-60
2022/12/27 09:56:28;;;;;;;0.00;0.00;;;;;;;10.49;76.90;100154.09;7360584;19;20018;-61
2022/12/27 09:59:08;;;;;;;0.00;0.00;;;;;;;10.53;76.94;100161.78;7360923;19;20106;-60
2022/12/27 10:01:35;;;;;;;0.03;0.03;;;;;;;10.58;76.47;100172.94;7361776;19;20052;-60
2022/12/27 10:04:02;;;;;;;0.00;0.00;;;;;;;10.59;76.45;100179.91;7361464;19;20036;-60
2022/12/27 10:06:48;;;;;;;0.00;0.00;;;;;;;10.65;76.67;100179.69;7359748;19;20467;-60
2022/12/27 10:09:22;;;;;;;0.10;0.10;;;;;;;10.68;76.54;100175.28;7356123;19;20014;-60
2022/12/27 10:12:15;;;;;;;0.10;0.10;;;;;;;10.73;76.67;100175.97;7361093;19;20103;-61
2022/12/27 10:15:18;;;;;;;0.10;0.10;;;;;;;10.77;76.59;100167.16;7258015;19;2004551;-60
2022/12/27 10:18:02;;;;;;;0.05;0.05;;;;;;;10.76;76.69;100160.22;7259440;19;2004496;-60
2022/12/27 10:20:52;;;;;;;0.00;0.00;;;;;;;10.78;76.49;100142.75;7362649;19;20019;-61
2022/12/27 10:23:29;;;;;;;0.00;0.00;;;;;;;10.86;76.83;100151.19;7359682;19;20006;-60
2022/12/27 10:26:00;;;;;;;;;;;;;;;10.91;76.48;100150.13;7362042;19;20896;-59
2022/12/27 10:28:44;;;;;;;0.00;0.00;;;;;;;10.95;76.27;100148.28;7353977;19;20339;-60
2022/12/27 10:31:22;;;;;;;0.00;0.00;;;;;;;10.89;76.34;100128.41;7356768;19;20078;-60
2022/12/27 10:33:49;;;;;;;0.10;0.10;;;;;;;10.95;76.44;100132.59;7359800;19;20007;-60
2022/12/27 10:36:22;;;;;;;0.10;0.10;;;;;;;11.00;76.52;100135.91;7358642;19;20022;-61
2022/12/27 10:38:48;;;;;;;0.00;0.00;;;;;;;11.00;76.60;100133.31;7359716;19;20012;-61
2022/12/27 10:41:19;;;;;;;0.00;0.00;;;;;;;11.06;76.76;100125.25;7359512;19;20006;-60
2022/12/27 10:43:49;;;;;;;0.00;0.00;;;;;;;11.11;76.92;100120.72;7359605;19;20738;-61
2022/12/27 10:46:20;;;;;;;0.00;0.00;;;;;;;11.15;76.92;100111.88;7359248;19;20011;-60
2022/12/27 10:49:19;;;;;;;0.00;0.00;;;;;;;11.18;76.91;100122.22;7360413;19;20030;-60
2022/12/27 10:51:45;;;;;;;0.10;0.10;;;;;;;11.22;76.79;100111.66;7259128;19;2004133;-61
2022/12/27 10:54:21;;;;;;;0.00;0.00;;;;;;;11.28;76.54;100116.66;7361663;19;20007;-60
2022/12/27 10:56:46;;;;;;;0.00;0.00;;;;;;;11.31;76.37;100116.56;7359211;19;20006;-61
2022/12/27 10:59:14;;;;;;;0.10;0.10;;;;;;;11.36;76.83;100093.75;7359013;19;20011;-61
2022/12/27 11:01:39;;;;;;;;;;;;;;;11.41;76.65;100087.44;7361556;19;20006;-60
2022/12/27 11:04:11;;;;;;;0.08;0.08;;;;;;;11.43;76.49;100095.22;7360118;19;19950;-61
2022/12/27 11:06:36;;;;;;;0.08;0.08;;;;;;;11.48;76.51;100082.84;7360231;19;20836;-60
2022/12/27 11:09:28;;;;;;;0.00;0.00;;;;;;;11.53;76.34;100093.13;7361943;19;20069;-60
2022/12/27 11:12:16;;;;;;;0.10;0.10;;;;;;;11.58;76.63;100085.97;7254741;19;2004363;-60
2022/12/27 11:15:00;;;;;;;0.10;0.10;;;;;;;11.58;76.47;100068.50;7256966;19;2004531;-60
2022/12/27 11:17:34;;;;;;;0.10;0.10;;;;;;;11.64;76.35;100078.75;7362667;19;20077;-61
2022/12/27 11:20:14;;;;;;;0.10;0.10;;;;;;;11.66;76.14;100076.94;7358821;19;20010;-60
2022/12/27 11:22:50;;;;;;;0.00;0.00;;;;;;;11.68;76.55;100069.88;7357847;19;21753;-61
2022/12/27 11:25:16;;;;;;;0.03;0.03;;;;;;;11.73;76.28;100076.69;7356823;19;20010;-60
2022/12/27 11:28:04;;;;;;;0.08;0.08;;;;;;;11.84;76.42;100064.09;7355029;19;20335;-60
2022/12/27 11:30:39;;;;;;;0.00;0.00;;;;;;;11.82;76.30;100071.16;7258520;19;2004411;-60
2022/12/27 11:33:26;;;;;;;0.05;0.05;;;;;;;11.89;76.73;100067.41;7359809;19;20416;-60
2022/12/27 11:35:54;;;;;;;0.00;0.00;;;;;;;11.95;76.53;100065.38;7356722;19;20018;-60
2022/12/27 11:38:26;;;;;;;0.10;0.10;;;;;;;12.04;76.40;100043.25;7358269;19;20026;-60
2022/12/27 11:41:29;;;;;;;0.10;0.10;;;;;;;12.08;76.65;100047.47;7361389;19;20014;-60
2022/12/27 11:44:20;;;;;;;0.00;0.00;;;;;;;12.16;76.05;100074.16;7255341;19;2004494;-60
2022/12/27 11:46:58;;;;;;;0.10;0.10;;;;;;;12.19;75.80;100028.72;7356926;19;20474;-60
2022/12/27 11:49:27;;;;;;;;;;;;;;;12.28;75.94;100037.97;7361316;19;20010;-60
2022/12/27 11:52:13;;;;;;;0.03;0.03;;;;;;;12.28;75.41;100017.88;7357432;19;19931;-60
2022/12/27 11:55:26;;;;;;;0.00;0.00;;;;;;;12.32;75.79;100019.47;7360136;19;20094;-61
2022/12/27 11:57:54;;;;;;;0.00;0.00;;;;;;;12.31;75.93;100029.97;7262688;19;2004358;-59
2022/12/27 12:00:25;;;;;;;0.10;0.10;;;;;;;12.23;75.73;100000.66;7364514;19;20040;-60
2022/12/27 12:03:44;;;;;;;0.08;0.08;;;;;;;12.36;75.71;100013.16;7363988;19;20026;-59
2022/12/27 12:06:34;;;;;;;0.10;0.10;;;;;;;12.40;75.85;100026.97;7261861;19;2004543;-61
2022/12/27 12:09:11;;;;;;;0.10;0.10;;;;;;;12.40;75.98;100006.88;7362931;19;20009;-60
2022/12/27 12:11:48;;;;;;;0.00;0.00;;;;;;;12.46;75.98;99984.81;7365843;19;20545;-60
2022/12/27 12:14:20;;;;;;;0.10;0.10;;;;;;;12.50;76.32;99989.03;7365658;19;20007;-60
2022/12/27 12:17:01;;;;;;;0.08;0.08;;;;;;;12.53;76.00;99983.66;7364295;19;20025;-60
2022/12/27 12:19:38;;;;;;;0.10;0.10;;;;;;;12.60;76.14;99989.50;7350693;19;20026;-61
2022/12/27 12:22:25;;;;;;;0.00;0.00;;;;;;;12.63;76.15;99956.16;7362747;19;20017;-60
2022/12/27 12:25:37;;;;;;;0.00;0.00;;;;;;;12.69;75.79;99955.91;7366394;19;20016;-60
2022/12/27 12:28:31;;;;;;;0.00;0.00;;;;;;;12.73;75.47;99954.00;7262725;19;2004344;-60
2022/12/27 12:31:15;;;;;;;0.00;0.00;;;;;;;12.78;75.96;99959.91;7262235;19;2005153;-60
2022/12/27 12:34:18;;;;;;;0.10;0.10;;;;;;;12.82;75.70;99965.84;7367137;19;20044;-60
2022/12/27 12:37:38;;;;;;;0.00;0.00;;;;;;;12.84;75.33;99959.63;7264424;19;2004378;-60
2022/12/27 12:40:04;;;;;;;0.05;0.05;;;;;;;12.84;75.41;99941.28;7259683;19;2004511;-61
2022/12/27 12:43:05;;;;;;;0.10;0.10;;;;;;;12.88;75.36;99928.91;7363569;19;20011;-60
2022/12/27 12:45:44;;;;;;;0.10;0.10;;;;;;;12.89;75.65;99925.38;7263373;19;2004549;-59
2022/12/27 12:48:47;;;;;;;0.00;0.00;;;;;;;12.92;75.38;99933.06;7367454;19;20074;-60
2022/12/27 12:51:40;;;;;;;0.00;0.00;;;;;;;12.92;75.10;99914.72;7265268;19;2004401;-60
2022/12/27 12:54:29;;;;;;;0.10;0.10;;;;;;;12.91;75.09;99892.91;7261040;19;2004546;-60
2022/12/27 12:57:05;;;;;;;0.10;0.10;;;;;;;12.90;74.89;99916.56;7365433;19;20018;-60
2022/12/27 12:59:58;;;;;;;0.10;0.10;;;;;;;12.90;75.39;99906.09;7366683;19;20011;-60
2022/12/27 13:02:40;;;;;;;0.10;0.10;;;;;;;12.88;75.42;99913.19;7265477;19;2004540;-60
2022/12/27 13:05:33;;;;;;;0.08;0.08;;;;;;;12.88;75.07;99905.31;7361010;19;20074;-61
2022/12/27 13:08:25;;;;;;;0.10;0.10;;;;;;;12.87;75.29;99880.00;7263425;19;2004776;-60
2022/12/27 13:11:09;;;;;;;0.10;0.10;;;;;;;12.85;75.46;99880.09;7262269;19;2004530;-60
2022/12/27 13:13:54;;;;;;;0.10;0.10;;;;;;;12.86;75.43;99852.13;7363720;19;20017;-60
2022/12/27 13:16:29;;;;;;;0.10;0.10;;;;;;;12.83;75.14;99853.13;7365742;19;20408;-60
2022/12/27 13:19:19;;;;;;;0.00;0.00;;;;;;;12.82;75.37;99840.06;7366316;19;20136;-60
2022/12/27 13:22:15;;;;;;;0.08;0.08;;;;;;;12.82;75.23;99834.84;7362003;19;20035;-60
2022/12/27 13:24:52;;;;;;;0.00;0.00;;;;;;;12.79;75.22;99821.91;7263358;19;2004677;-60
2022/12/27 13:27:30;;;;;;;;;;;;;;;12.79;75.52;99840.22;7366094;19;20017;-60
2022/12/27 13:30:11;;;;;;;0.00;0.00;;;;;;;12.73;75.41;99842.22;7364782;19;19922;-60